sensor_id;sensor_type;location;lat;lon;timestamp;P1;durP1;ratioP1;P2;durP2;ratioP2
30874;SDS011;17581;43.222;27.924;2024-01-25T00:00:40;38.05;;;21.92;;
30874;SDS011;17581;43.222;27.924;2024-01-25T00:03:06;34.45;;;21.48;;
30874;SDS011;17581;43.222;27.924;2024-01-25T00:05:32;41.35;;;21.02;;
30874;SDS011;17581;43.222;27.924;2024-01-25T00:07:57;35.85;;;21.00;;
30874;SDS011;17581;43.222;27.924;2024-01-25T00:10:23;39.60;;;21.63;;
30874;SDS011;17581;43.222;27.924;2024-01-25T00:12:48;30.73;;;19.40;;
30874;SDS011;17581;43.222;27.924;2024-01-25T00:15:14;45.30;;;20.75;;
30874;SDS011;17581;43.222;27.924;2024-01-25T00:17:40;34.58;;;19.73;;
30874;SDS011;17581;43.222;27.924;2024-01-25T00:20:06;32.05;;;19.67;;
30874;SDS011;17581;43.222;27.924;2024-01-25T00:22:34;34.40;;;19.90;;
30874;SDS011;17581;43.222;27.924;2024-01-25T00:24:59;26.08;;;18.13;;
30874;SDS011;17581;43.222;27.924;2024-01-25T00:27:25;29.90;;;18.92;;
30874;SDS011;17581;43.222;27.924;2024-01-25T00:29:50;32.05;;;18.15;;
30874;SDS011;17581;43.222;27.924;2024-01-25T00:32:16;31.88;;;19.45;;
30874;SDS011;17581;43.222;27.924;2024-01-25T00:34:41;26.70;;;18.45;;
30874;SDS011;17581;43.222;27.924;2024-01-25T00:37:07;31.50;;;19.60;;
30874;SDS011;17581;43.222;27.924;2024-01-25T00:39:33;33.97;;;18.42;;
30874;SDS011;17581;43.222;27.924;2024-01-25T00:42:03;30.05;;;19.85;;
30874;SDS011;17581;43.222;27.924;2024-01-25T00:44:30;38.33;;;18.88;;
30874;SDS011;17581;43.222;27.924;2024-01-25T00:46:57;37.03;;;18.92;;
30874;SDS011;17581;43.222;27.924;2024-01-25T00:49:22;35.85;;;20.67;;
30874;SDS011;17581;43.222;27.924;2024-01-25T00:51:48;32.80;;;19.95;;
30874;SDS011;17581;43.222;27.924;2024-01-25T00:54:15;29.27;;;18.10;;
30874;SDS011;17581;43.222;27.924;2024-01-25T00:56:41;34.85;;;20.25;;
30874;SDS011;17581;43.222;27.924;2024-01-25T00:59:07;35.03;;;19.80;;
30874;SDS011;17581;43.222;27.924;2024-01-25T01:01:33;34.00;;;21.02;;
30874;SDS011;17581;43.222;27.924;2024-01-25T01:03:59;33.38;;;19.63;;
30874;SDS011;17581;43.222;27.924;2024-01-25T01:06:25;29.70;;;20.13;;
30874;SDS011;17581;43.222;27.924;2024-01-25T01:08:51;29.02;;;20.67;;
30874;SDS011;17581;43.222;27.924;2024-01-25T01:11:17;34.85;;;21.40;;
30874;SDS011;17581;43.222;27.924;2024-01-25T01:13:43;33.90;;;20.38;;
30874;SDS011;17581;43.222;27.924;2024-01-25T01:16:09;33.35;;;20.92;;
30874;SDS011;17581;43.222;27.924;2024-01-25T01:18:35;29.83;;;21.00;;
30874;SDS011;17581;43.222;27.924;2024-01-25T01:21:00;47.65;;;22.85;;
30874;SDS011;17581;43.222;27.924;2024-01-25T01:23:26;35.30;;;20.45;;
30874;SDS011;17581;43.222;27.924;2024-01-25T01:25:51;38.90;;;21.73;;
30874;SDS011;17581;43.222;27.924;2024-01-25T01:28:17;37.42;;;21.42;;
30874;SDS011;17581;43.222;27.924;2024-01-25T01:30:42;41.70;;;22.10;;
30874;SDS011;17581;43.222;27.924;2024-01-25T01:33:08;44.90;;;23.23;;
30874;SDS011;17581;43.222;27.924;2024-01-25T01:35:34;39.95;;;24.88;;
30874;SDS011;17581;43.222;27.924;2024-01-25T01:37:59;49.22;;;25.83;;
30874;SDS011;17581;43.222;27.924;2024-01-25T01:40:25;36.40;;;24.20;;
30874;SDS011;17581;43.222;27.924;2024-01-25T01:42:50;43.10;;;26.55;;
30874;SDS011;17581;43.222;27.924;2024-01-25T01:45:16;41.97;;;23.95;;
30874;SDS011;17581;43.222;27.924;2024-01-25T01:47:41;46.22;;;26.88;;
30874;SDS011;17581;43.222;27.924;2024-01-25T01:50:08;35.58;;;22.45;;
30874;SDS011;17581;43.222;27.924;2024-01-25T01:52:34;41.47;;;25.23;;
30874;SDS011;17581;43.222;27.924;2024-01-25T01:55:00;47.05;;;23.00;;
30874;SDS011;17581;43.222;27.924;2024-01-25T01:57:26;44.58;;;22.23;;
30874;SDS011;17581;43.222;27.924;2024-01-25T01:59:52;33.70;;;18.65;;
30874;SDS011;17581;43.222;27.924;2024-01-25T02:02:18;30.90;;;16.38;;
30874;SDS011;17581;43.222;27.924;2024-01-25T02:04:44;27.63;;;16.13;;
30874;SDS011;17581;43.222;27.924;2024-01-25T02:07:10;25.05;;;15.95;;
30874;SDS011;17581;43.222;27.924;2024-01-25T02:09:37;24.63;;;16.30;;
30874;SDS011;17581;43.222;27.924;2024-01-25T02:12:02;31.48;;;17.40;;
30874;SDS011;17581;43.222;27.924;2024-01-25T02:14:28;31.85;;;17.02;;
30874;SDS011;17581;43.222;27.924;2024-01-25T02:16:55;29.73;;;17.77;;
30874;SDS011;17581;43.222;27.924;2024-01-25T02:19:21;32.70;;;19.75;;
30874;SDS011;17581;43.222;27.924;2024-01-25T02:21:47;27.95;;;19.60;;
30874;SDS011;17581;43.222;27.924;2024-01-25T02:24:13;39.47;;;21.88;;
30874;SDS011;17581;43.222;27.924;2024-01-25T02:26:39;36.22;;;22.92;;
30874;SDS011;17581;43.222;27.924;2024-01-25T02:29:04;35.17;;;22.90;;
30874;SDS011;17581;43.222;27.924;2024-01-25T02:31:32;37.58;;;22.42;;
30874;SDS011;17581;43.222;27.924;2024-01-25T02:33:58;35.75;;;21.90;;
30874;SDS011;17581;43.222;27.924;2024-01-25T02:36:23;37.83;;;21.98;;
30874;SDS011;17581;43.222;27.924;2024-01-25T02:38:49;42.47;;;23.85;;
30874;SDS011;17581;43.222;27.924;2024-01-25T02:41:14;37.05;;;22.52;;
30874;SDS011;17581;43.222;27.924;2024-01-25T02:43:40;40.97;;;22.42;;
30874;SDS011;17581;43.222;27.924;2024-01-25T02:46:06;50.53;;;23.27;;
30874;SDS011;17581;43.222;27.924;2024-01-25T02:48:32;43.42;;;23.80;;
30874;SDS011;17581;43.222;27.924;2024-01-25T02:50:58;34.28;;;22.75;;
30874;SDS011;17581;43.222;27.924;2024-01-25T02:53:23;34.75;;;21.55;;
30874;SDS011;17581;43.222;27.924;2024-01-25T02:55:49;38.05;;;20.63;;
30874;SDS011;17581;43.222;27.924;2024-01-25T02:58:14;37.72;;;21.70;;
30874;SDS011;17581;43.222;27.924;2024-01-25T03:00:40;33.25;;;20.00;;
30874;SDS011;17581;43.222;27.924;2024-01-25T03:03:05;35.33;;;20.92;;
30874;SDS011;17581;43.222;27.924;2024-01-25T03:05:31;37.47;;;20.35;;
30874;SDS011;17581;43.222;27.924;2024-01-25T03:07:56;39.63;;;21.20;;
30874;SDS011;17581;43.222;27.924;2024-01-25T03:10:23;32.53;;;19.50;;
30874;SDS011;17581;43.222;27.924;2024-01-25T03:12:48;32.70;;;20.92;;
30874;SDS011;17581;43.222;27.924;2024-01-25T03:15:14;31.88;;;19.67;;
30874;SDS011;17581;43.222;27.924;2024-01-25T03:17:40;31.88;;;20.17;;
30874;SDS011;17581;43.222;27.924;2024-01-25T03:20:05;38.47;;;20.92;;
30874;SDS011;17581;43.222;27.924;2024-01-25T03:22:31;32.90;;;21.15;;
30874;SDS011;17581;43.222;27.924;2024-01-25T03:24:57;37.28;;;21.38;;
30874;SDS011;17581;43.222;27.924;2024-01-25T03:27:22;38.88;;;22.45;;
30874;SDS011;17581;43.222;27.924;2024-01-25T03:29:48;35.90;;;22.08;;
30874;SDS011;17581;43.222;27.924;2024-01-25T03:32:13;34.53;;;22.15;;
30874;SDS011;17581;43.222;27.924;2024-01-25T03:34:39;36.30;;;20.30;;
30874;SDS011;17581;43.222;27.924;2024-01-25T03:37:04;39.83;;;21.10;;
30874;SDS011;17581;43.222;27.924;2024-01-25T03:39:30;39.78;;;22.40;;
30874;SDS011;17581;43.222;27.924;2024-01-25T03:41:56;35.00;;;21.35;;
30874;SDS011;17581;43.222;27.924;2024-01-25T03:44:21;35.60;;;21.13;;
30874;SDS011;17581;43.222;27.924;2024-01-25T03:46:47;36.90;;;21.63;;
30874;SDS011;17581;43.222;27.924;2024-01-25T03:49:12;36.15;;;21.92;;
30874;SDS011;17581;43.222;27.924;2024-01-25T03:51:38;46.22;;;24.80;;
30874;SDS011;17581;43.222;27.924;2024-01-25T03:54:03;46.38;;;25.13;;
30874;SDS011;17581;43.222;27.924;2024-01-25T03:56:29;39.58;;;23.75;;
30874;SDS011;17581;43.222;27.924;2024-01-25T03:58:54;36.72;;;22.13;;
30874;SDS011;17581;43.222;27.924;2024-01-25T04:01:20;33.97;;;21.48;;
30874;SDS011;17581;43.222;27.924;2024-01-25T04:03:45;37.72;;;19.85;;
30874;SDS011;17581;43.222;27.924;2024-01-25T04:06:11;35.08;;;21.13;;
30874;SDS011;17581;43.222;27.924;2024-01-25T04:08:36;39.30;;;21.83;;
30874;SDS011;17581;43.222;27.924;2024-01-25T04:11:02;44.50;;;22.42;;
30874;SDS011;17581;43.222;27.924;2024-01-25T04:13:27;40.58;;;25.88;;
30874;SDS011;17581;43.222;27.924;2024-01-25T04:15:53;33.67;;;21.13;;
30874;SDS011;17581;43.222;27.924;2024-01-25T04:18:18;37.33;;;21.55;;
30874;SDS011;17581;43.222;27.924;2024-01-25T04:20:44;39.95;;;24.50;;
30874;SDS011;17581;43.222;27.924;2024-01-25T04:23:09;39.38;;;23.42;;
30874;SDS011;17581;43.222;27.924;2024-01-25T04:25:35;43.78;;;24.75;;
30874;SDS011;17581;43.222;27.924;2024-01-25T04:28:01;40.50;;;25.15;;
30874;SDS011;17581;43.222;27.924;2024-01-25T04:30:27;50.30;;;25.52;;
30874;SDS011;17581;43.222;27.924;2024-01-25T04:32:52;54.83;;;24.80;;
30874;SDS011;17581;43.222;27.924;2024-01-25T04:35:18;51.90;;;27.10;;
30874;SDS011;17581;43.222;27.924;2024-01-25T04:37:43;46.22;;;27.98;;
30874;SDS011;17581;43.222;27.924;2024-01-25T04:40:09;52.17;;;31.48;;
30874;SDS011;17581;43.222;27.924;2024-01-25T04:42:35;54.60;;;32.10;;
30874;SDS011;17581;43.222;27.924;2024-01-25T04:45:00;56.15;;;34.08;;
30874;SDS011;17581;43.222;27.924;2024-01-25T04:47:26;64.35;;;36.28;;
30874;SDS011;17581;43.222;27.924;2024-01-25T04:49:51;67.07;;;36.67;;
30874;SDS011;17581;43.222;27.924;2024-01-25T04:52:17;59.70;;;36.92;;
30874;SDS011;17581;43.222;27.924;2024-01-25T04:54:42;67.93;;;37.42;;
30874;SDS011;17581;43.222;27.924;2024-01-25T04:57:08;66.30;;;36.38;;
30874;SDS011;17581;43.222;27.924;2024-01-25T04:59:33;59.72;;;37.72;;
30874;SDS011;17581;43.222;27.924;2024-01-25T05:01:59;64.25;;;35.75;;
30874;SDS011;17581;43.222;27.924;2024-01-25T05:04:24;55.75;;;32.95;;
30874;SDS011;17581;43.222;27.924;2024-01-25T05:06:50;68.28;;;37.20;;
30874;SDS011;17581;43.222;27.924;2024-01-25T05:09:16;63.58;;;34.47;;
30874;SDS011;17581;43.222;27.924;2024-01-25T05:11:41;58.70;;;32.10;;
30874;SDS011;17581;43.222;27.924;2024-01-25T05:14:07;52.95;;;33.22;;
30874;SDS011;17581;43.222;27.924;2024-01-25T05:16:32;73.32;;;31.83;;
30874;SDS011;17581;43.222;27.924;2024-01-25T05:18:58;60.22;;;33.50;;
30874;SDS011;17581;43.222;27.924;2024-01-25T05:21:24;55.03;;;29.08;;
30874;SDS011;17581;43.222;27.924;2024-01-25T05:23:49;54.13;;;27.77;;
30874;SDS011;17581;43.222;27.924;2024-01-25T05:26:15;48.03;;;26.85;;
30874;SDS011;17581;43.222;27.924;2024-01-25T05:28:40;41.90;;;22.98;;
30874;SDS011;17581;43.222;27.924;2024-01-25T05:31:06;39.42;;;22.02;;
30874;SDS011;17581;43.222;27.924;2024-01-25T05:33:37;42.03;;;19.58;;
30874;SDS011;17581;43.222;27.924;2024-01-25T05:36:04;35.50;;;17.73;;
30874;SDS011;17581;43.222;27.924;2024-01-25T05:38:30;38.15;;;18.27;;
30874;SDS011;17581;43.222;27.924;2024-01-25T05:40:57;40.20;;;20.02;;
30874;SDS011;17581;43.222;27.924;2024-01-25T05:43:23;31.40;;;16.63;;
30874;SDS011;17581;43.222;27.924;2024-01-25T05:45:48;39.38;;;17.27;;
30874;SDS011;17581;43.222;27.924;2024-01-25T05:48:14;26.17;;;15.98;;
30874;SDS011;17581;43.222;27.924;2024-01-25T05:50:40;29.77;;;16.55;;
30874;SDS011;17581;43.222;27.924;2024-01-25T05:53:05;33.78;;;15.88;;
30874;SDS011;17581;43.222;27.924;2024-01-25T05:55:31;37.40;;;17.35;;
30874;SDS011;17581;43.222;27.924;2024-01-25T05:57:57;47.38;;;18.42;;
30874;SDS011;17581;43.222;27.924;2024-01-25T06:00:22;39.63;;;18.33;;
30874;SDS011;17581;43.222;27.924;2024-01-25T06:02:48;38.50;;;19.65;;
30874;SDS011;17581;43.222;27.924;2024-01-25T06:05:14;38.97;;;20.67;;
30874;SDS011;17581;43.222;27.924;2024-01-25T06:07:39;43.30;;;19.88;;
30874;SDS011;17581;43.222;27.924;2024-01-25T06:10:06;35.72;;;19.20;;
30874;SDS011;17581;43.222;27.924;2024-01-25T06:12:32;39.38;;;18.90;;
30874;SDS011;17581;43.222;27.924;2024-01-25T06:14:58;31.08;;;18.27;;
30874;SDS011;17581;43.222;27.924;2024-01-25T06:17:23;35.03;;;18.38;;
30874;SDS011;17581;43.222;27.924;2024-01-25T06:19:49;42.65;;;19.77;;
30874;SDS011;17581;43.222;27.924;2024-01-25T06:22:14;42.38;;;22.08;;
30874;SDS011;17581;43.222;27.924;2024-01-25T06:24:42;52.20;;;23.65;;
30874;SDS011;17581;43.222;27.924;2024-01-25T06:27:09;52.83;;;26.80;;
30874;SDS011;17581;43.222;27.924;2024-01-25T06:29:35;51.30;;;27.20;;
30874;SDS011;17581;43.222;27.924;2024-01-25T06:32:00;50.78;;;28.73;;
30874;SDS011;17581;43.222;27.924;2024-01-25T06:34:26;45.63;;;27.48;;
30874;SDS011;17581;43.222;27.924;2024-01-25T06:36:51;56.00;;;27.02;;
30874;SDS011;17581;43.222;27.924;2024-01-25T06:39:17;46.90;;;26.70;;
30874;SDS011;17581;43.222;27.924;2024-01-25T06:41:42;43.97;;;23.42;;
30874;SDS011;17581;43.222;27.924;2024-01-25T06:44:08;45.97;;;23.10;;
30874;SDS011;17581;43.222;27.924;2024-01-25T06:46:34;38.28;;;21.55;;
30874;SDS011;17581;43.222;27.924;2024-01-25T06:49:00;45.92;;;21.63;;
30874;SDS011;17581;43.222;27.924;2024-01-25T06:51:26;43.47;;;21.38;;
30874;SDS011;17581;43.222;27.924;2024-01-25T06:53:52;42.60;;;21.25;;
30874;SDS011;17581;43.222;27.924;2024-01-25T06:56:17;43.08;;;22.30;;
30874;SDS011;17581;43.222;27.924;2024-01-25T06:58:42;32.55;;;19.02;;
30874;SDS011;17581;43.222;27.924;2024-01-25T07:01:08;43.78;;;20.48;;
30874;SDS011;17581;43.222;27.924;2024-01-25T07:03:34;32.63;;;19.42;;
30874;SDS011;17581;43.222;27.924;2024-01-25T07:06:00;45.80;;;20.08;;
30874;SDS011;17581;43.222;27.924;2024-01-25T07:08:25;39.65;;;19.52;;
30874;SDS011;17581;43.222;27.924;2024-01-25T07:10:51;34.85;;;18.50;;
30874;SDS011;17581;43.222;27.924;2024-01-25T07:13:16;34.45;;;18.20;;
30874;SDS011;17581;43.222;27.924;2024-01-25T07:15:42;31.63;;;17.00;;
30874;SDS011;17581;43.222;27.924;2024-01-25T07:18:08;30.30;;;16.27;;
30874;SDS011;17581;43.222;27.924;2024-01-25T07:20:33;35.30;;;16.13;;
30874;SDS011;17581;43.222;27.924;2024-01-25T07:22:59;38.40;;;16.42;;
30874;SDS011;17581;43.222;27.924;2024-01-25T07:25:24;27.40;;;15.32;;
30874;SDS011;17581;43.222;27.924;2024-01-25T07:27:50;36.22;;;16.15;;
30874;SDS011;17581;43.222;27.924;2024-01-25T07:30:15;30.67;;;16.33;;
30874;SDS011;17581;43.222;27.924;2024-01-25T07:32:41;27.90;;;15.80;;
30874;SDS011;17581;43.222;27.924;2024-01-25T07:35:10;32.35;;;14.00;;
30874;SDS011;17581;43.222;27.924;2024-01-25T07:37:37;35.22;;;15.63;;
30874;SDS011;17581;43.222;27.924;2024-01-25T07:40:03;35.85;;;17.63;;
30874;SDS011;17581;43.222;27.924;2024-01-25T07:42:29;23.33;;;14.32;;
30874;SDS011;17581;43.222;27.924;2024-01-25T07:44:54;26.20;;;13.02;;
30874;SDS011;17581;43.222;27.924;2024-01-25T07:47:20;28.95;;;14.70;;
30874;SDS011;17581;43.222;27.924;2024-01-25T07:49:45;43.85;;;18.85;;
30874;SDS011;17581;43.222;27.924;2024-01-25T07:52:11;43.40;;;18.77;;
30874;SDS011;17581;43.222;27.924;2024-01-25T07:54:36;35.35;;;17.88;;
30874;SDS011;17581;43.222;27.924;2024-01-25T07:57:02;29.25;;;15.13;;
30874;SDS011;17581;43.222;27.924;2024-01-25T07:59:28;34.20;;;16.83;;
30874;SDS011;17581;43.222;27.924;2024-01-25T08:01:53;26.70;;;15.90;;
30874;SDS011;17581;43.222;27.924;2024-01-25T08:04:19;28.83;;;17.35;;
30874;SDS011;17581;43.222;27.924;2024-01-25T08:06:44;37.70;;;15.98;;
30874;SDS011;17581;43.222;27.924;2024-01-25T08:09:09;23.17;;;14.40;;
30874;SDS011;17581;43.222;27.924;2024-01-25T08:11:35;26.90;;;16.08;;
30874;SDS011;17581;43.222;27.924;2024-01-25T08:14:01;28.17;;;15.65;;
30874;SDS011;17581;43.222;27.924;2024-01-25T08:16:28;40.42;;;15.80;;
30874;SDS011;17581;43.222;27.924;2024-01-25T08:18:54;42.75;;;16.20;;
30874;SDS011;17581;43.222;27.924;2024-01-25T08:21:19;32.90;;;17.23;;
30874;SDS011;17581;43.222;27.924;2024-01-25T08:23:45;36.05;;;14.32;;
30874;SDS011;17581;43.222;27.924;2024-01-25T08:26:10;41.10;;;14.95;;
30874;SDS011;17581;43.222;27.924;2024-01-25T08:28:40;29.85;;;12.50;;
30874;SDS011;17581;43.222;27.924;2024-01-25T08:31:08;21.73;;;13.45;;
30874;SDS011;17581;43.222;27.924;2024-01-25T08:33:34;34.40;;;15.35;;
30874;SDS011;17581;43.222;27.924;2024-01-25T08:35:59;27.38;;;14.70;;
30874;SDS011;17581;43.222;27.924;2024-01-25T08:38:25;31.90;;;15.40;;
30874;SDS011;17581;43.222;27.924;2024-01-25T08:40:51;31.95;;;14.77;;
30874;SDS011;17581;43.222;27.924;2024-01-25T08:43:16;30.77;;;14.88;;
30874;SDS011;17581;43.222;27.924;2024-01-25T08:45:43;26.95;;;13.70;;
30874;SDS011;17581;43.222;27.924;2024-01-25T08:48:08;28.73;;;16.40;;
30874;SDS011;17581;43.222;27.924;2024-01-25T08:50:34;35.45;;;16.77;;
30874;SDS011;17581;43.222;27.924;2024-01-25T08:53:01;36.25;;;15.43;;
30874;SDS011;17581;43.222;27.924;2024-01-25T08:55:26;24.73;;;12.75;;
30874;SDS011;17581;43.222;27.924;2024-01-25T08:57:52;21.20;;;12.80;;
30874;SDS011;17581;43.222;27.924;2024-01-25T09:00:17;40.38;;;14.45;;
30874;SDS011;17581;43.222;27.924;2024-01-25T09:02:43;28.88;;;14.40;;
30874;SDS011;17581;43.222;27.924;2024-01-25T09:05:09;33.22;;;13.77;;
30874;SDS011;17581;43.222;27.924;2024-01-25T09:07:34;32.63;;;14.65;;
30874;SDS011;17581;43.222;27.924;2024-01-25T09:10:00;26.35;;;13.18;;
30874;SDS011;17581;43.222;27.924;2024-01-25T09:12:26;37.05;;;14.27;;
30874;SDS011;17581;43.222;27.924;2024-01-25T09:14:51;40.13;;;14.60;;
30874;SDS011;17581;43.222;27.924;2024-01-25T09:17:17;26.13;;;12.07;;
30874;SDS011;17581;43.222;27.924;2024-01-25T09:19:47;22.88;;;11.98;;
30874;SDS011;17581;43.222;27.924;2024-01-25T09:22:14;29.15;;;12.50;;
30874;SDS011;17581;43.222;27.924;2024-01-25T09:24:42;25.80;;;12.55;;
30874;SDS011;17581;43.222;27.924;2024-01-25T09:27:07;45.03;;;13.40;;
30874;SDS011;17581;43.222;27.924;2024-01-25T09:29:33;28.38;;;12.02;;
30874;SDS011;17581;43.222;27.924;2024-01-25T09:31:59;22.08;;;11.07;;
30874;SDS011;17581;43.222;27.924;2024-01-25T09:34:24;22.13;;;10.63;;
30874;SDS011;17581;43.222;27.924;2024-01-25T09:36:51;48.78;;;12.18;;
30874;SDS011;17581;43.222;27.924;2024-01-25T09:39:16;34.17;;;12.93;;
30874;SDS011;17581;43.222;27.924;2024-01-25T09:41:42;26.23;;;12.32;;
30874;SDS011;17581;43.222;27.924;2024-01-25T09:44:08;19.42;;;12.20;;
30874;SDS011;17581;43.222;27.924;2024-01-25T09:46:34;33.28;;;14.25;;
30874;SDS011;17581;43.222;27.924;2024-01-25T09:49:01;41.22;;;12.75;;
30874;SDS011;17581;43.222;27.924;2024-01-25T09:51:28;33.70;;;11.52;;
30874;SDS011;17581;43.222;27.924;2024-01-25T09:54:02;21.48;;;10.73;;
30874;SDS011;17581;43.222;27.924;2024-01-25T09:56:30;25.50;;;11.02;;
30874;SDS011;17581;43.222;27.924;2024-01-25T09:58:57;31.20;;;10.55;;
30874;SDS011;17581;43.222;27.924;2024-01-25T10:01:23;41.13;;;12.05;;
30874;SDS011;17581;43.222;27.924;2024-01-25T10:03:50;33.20;;;12.27;;
30874;SDS011;17581;43.222;27.924;2024-01-25T10:06:16;24.42;;;10.38;;
30874;SDS011;17581;43.222;27.924;2024-01-25T10:08:42;19.02;;;9.98;;
30874;SDS011;17581;43.222;27.924;2024-01-25T10:11:08;24.13;;;11.07;;
30874;SDS011;17581;43.222;27.924;2024-01-25T10:13:53;28.33;;;11.35;;
30874;SDS011;17581;43.222;27.924;2024-01-25T10:16:19;23.92;;;10.93;;
30874;SDS011;17581;43.222;27.924;2024-01-25T10:18:48;16.70;;;9.93;;
30874;SDS011;17581;43.222;27.924;2024-01-25T10:21:14;26.70;;;11.48;;
30874;SDS011;17581;43.222;27.924;2024-01-25T10:23:43;26.00;;;11.88;;
30874;SDS011;17581;43.222;27.924;2024-01-25T10:26:10;24.92;;;11.55;;
30874;SDS011;17581;43.222;27.924;2024-01-25T10:28:36;28.27;;;9.85;;
30874;SDS011;17581;43.222;27.924;2024-01-25T10:31:02;17.85;;;10.45;;
30874;SDS011;17581;43.222;27.924;2024-01-25T10:33:29;33.08;;;11.50;;
30874;SDS011;17581;43.222;27.924;2024-01-25T10:35:56;24.13;;;11.00;;
30874;SDS011;17581;43.222;27.924;2024-01-25T10:38:32;48.60;;;13.30;;
30874;SDS011;17581;43.222;27.924;2024-01-25T10:41:00;59.33;;;12.73;;
30874;SDS011;17581;43.222;27.924;2024-01-25T10:43:28;23.27;;;9.85;;
30874;SDS011;17581;43.222;27.924;2024-01-25T10:45:57;25.30;;;11.68;;
30874;SDS011;17581;43.222;27.924;2024-01-25T10:48:26;22.80;;;10.48;;
30874;SDS011;17581;43.222;27.924;2024-01-25T10:50:54;27.83;;;11.05;;
30874;SDS011;17581;43.222;27.924;2024-01-25T10:53:20;17.98;;;9.32;;
30874;SDS011;17581;43.222;27.924;2024-01-25T10:55:47;22.83;;;10.38;;
30874;SDS011;17581;43.222;27.924;2024-01-25T10:58:15;24.00;;;10.00;;
30874;SDS011;17581;43.222;27.924;2024-01-25T11:00:41;30.60;;;11.52;;
30874;SDS011;17581;43.222;27.924;2024-01-25T11:03:14;23.08;;;10.15;;
30874;SDS011;17581;43.222;27.924;2024-01-25T11:05:40;29.38;;;11.35;;
30874;SDS011;17581;43.222;27.924;2024-01-25T11:08:16;31.90;;;10.75;;
30874;SDS011;17581;43.222;27.924;2024-01-25T11:10:43;28.92;;;12.15;;
30874;SDS011;17581;43.222;27.924;2024-01-25T11:13:15;26.67;;;13.40;;
30874;SDS011;17581;43.222;27.924;2024-01-25T11:15:41;25.52;;;12.95;;
30874;SDS011;17581;43.222;27.924;2024-01-25T11:18:08;37.17;;;13.07;;
30874;SDS011;17581;43.222;27.924;2024-01-25T11:20:34;31.48;;;12.63;;
30874;SDS011;17581;43.222;27.924;2024-01-25T11:25:28;78.40;;;13.48;;
30874;SDS011;17581;43.222;27.924;2024-01-25T11:27:55;35.72;;;14.38;;
30874;SDS011;17581;43.222;27.924;2024-01-25T11:30:20;28.63;;;10.85;;
30874;SDS011;17581;43.222;27.924;2024-01-25T11:32:46;35.00;;;13.15;;
30874;SDS011;17581;43.222;27.924;2024-01-25T11:35:12;27.27;;;10.00;;
30874;SDS011;17581;43.222;27.924;2024-01-25T11:37:42;34.83;;;12.70;;
30874;SDS011;17581;43.222;27.924;2024-01-25T11:40:10;25.45;;;10.93;;
30874;SDS011;17581;43.222;27.924;2024-01-25T11:42:36;21.25;;;10.57;;
30874;SDS011;17581;43.222;27.924;2024-01-25T11:45:02;34.92;;;10.48;;
30874;SDS011;17581;43.222;27.924;2024-01-25T11:47:28;27.58;;;10.50;;
30874;SDS011;17581;43.222;27.924;2024-01-25T11:49:53;27.00;;;9.50;;
30874;SDS011;17581;43.222;27.924;2024-01-25T11:52:19;34.30;;;11.20;;
30874;SDS011;17581;43.222;27.924;2024-01-25T11:54:45;57.88;;;12.60;;
30874;SDS011;17581;43.222;27.924;2024-01-25T11:57:11;28.17;;;9.20;;
30874;SDS011;17581;43.222;27.924;2024-01-25T11:59:36;19.83;;;9.70;;
30874;SDS011;17581;43.222;27.924;2024-01-25T12:02:02;25.95;;;9.77;;
30874;SDS011;17581;43.222;27.924;2024-01-25T12:04:28;48.63;;;12.75;;
30874;SDS011;17581;43.222;27.924;2024-01-25T12:06:54;37.90;;;11.48;;
30874;SDS011;17581;43.222;27.924;2024-01-25T12:09:20;22.83;;;9.57;;
30874;SDS011;17581;43.222;27.924;2024-01-25T12:11:48;32.58;;;10.55;;
30874;SDS011;17581;43.222;27.924;2024-01-25T12:14:16;22.70;;;9.15;;
30874;SDS011;17581;43.222;27.924;2024-01-25T12:16:41;32.60;;;10.07;;
30874;SDS011;17581;43.222;27.924;2024-01-25T12:19:07;43.72;;;11.05;;
30874;SDS011;17581;43.222;27.924;2024-01-25T12:21:33;28.67;;;10.52;;
30874;SDS011;17581;43.222;27.924;2024-01-25T12:23:59;28.63;;;11.38;;
30874;SDS011;17581;43.222;27.924;2024-01-25T12:26:25;26.27;;;11.48;;
30874;SDS011;17581;43.222;27.924;2024-01-25T12:28:51;27.52;;;11.35;;
30874;SDS011;17581;43.222;27.924;2024-01-25T12:31:16;38.60;;;9.70;;
30874;SDS011;17581;43.222;27.924;2024-01-25T12:33:42;22.25;;;10.75;;
30874;SDS011;17581;43.222;27.924;2024-01-25T12:36:09;24.40;;;10.23;;
30874;SDS011;17581;43.222;27.924;2024-01-25T12:38:34;42.20;;;14.57;;
30874;SDS011;17581;43.222;27.924;2024-01-25T12:41:00;24.48;;;9.82;;
30874;SDS011;17581;43.222;27.924;2024-01-25T12:43:26;32.78;;;11.02;;
30874;SDS011;17581;43.222;27.924;2024-01-25T12:45:52;23.38;;;9.82;;
30874;SDS011;17581;43.222;27.924;2024-01-25T12:48:17;30.35;;;10.65;;
30874;SDS011;17581;43.222;27.924;2024-01-25T12:50:43;25.17;;;11.90;;
30874;SDS011;17581;43.222;27.924;2024-01-25T12:53:10;26.90;;;12.38;;
30874;SDS011;17581;43.222;27.924;2024-01-25T12:55:37;26.30;;;12.93;;
30874;SDS011;17581;43.222;27.924;2024-01-25T12:58:03;26.65;;;12.07;;
30874;SDS011;17581;43.222;27.924;2024-01-25T13:00:28;23.55;;;11.00;;
30874;SDS011;17581;43.222;27.924;2024-01-25T13:02:54;25.67;;;11.57;;
30874;SDS011;17581;43.222;27.924;2024-01-25T13:05:21;25.70;;;11.27;;
30874;SDS011;17581;43.222;27.924;2024-01-25T13:07:47;42.85;;;14.20;;
30874;SDS011;17581;43.222;27.924;2024-01-25T13:10:13;28.60;;;12.40;;
30874;SDS011;17581;43.222;27.924;2024-01-25T13:12:39;60.83;;;15.60;;
30874;SDS011;17581;43.222;27.924;2024-01-25T13:15:04;44.53;;;13.48;;
30874;SDS011;17581;43.222;27.924;2024-01-25T13:17:31;41.88;;;15.43;;
30874;SDS011;17581;43.222;27.924;2024-01-25T13:19:59;37.08;;;13.85;;
30874;SDS011;17581;43.222;27.924;2024-01-25T13:22:25;27.60;;;12.18;;
30874;SDS011;17581;43.222;27.924;2024-01-25T13:24:51;23.38;;;10.30;;
30874;SDS011;17581;43.222;27.924;2024-01-25T13:27:17;24.00;;;11.73;;
30874;SDS011;17581;43.222;27.924;2024-01-25T13:29:42;32.53;;;11.90;;
30874;SDS011;17581;43.222;27.924;2024-01-25T13:32:08;30.15;;;13.48;;
30874;SDS011;17581;43.222;27.924;2024-01-25T13:34:34;48.97;;;13.73;;
30874;SDS011;17581;43.222;27.924;2024-01-25T13:36:59;30.98;;;12.07;;
30874;SDS011;17581;43.222;27.924;2024-01-25T13:39:25;33.92;;;10.05;;
30874;SDS011;17581;43.222;27.924;2024-01-25T13:41:51;40.05;;;10.95;;
30874;SDS011;17581;43.222;27.924;2024-01-25T13:44:16;20.00;;;9.65;;
30874;SDS011;17581;43.222;27.924;2024-01-25T13:46:42;25.83;;;10.73;;
30874;SDS011;17581;43.222;27.924;2024-01-25T13:49:08;21.08;;;9.00;;
30874;SDS011;17581;43.222;27.924;2024-01-25T13:51:33;35.00;;;10.05;;
30874;SDS011;17581;43.222;27.924;2024-01-25T13:53:59;21.13;;;10.30;;
30874;SDS011;17581;43.222;27.924;2024-01-25T13:56:25;28.55;;;9.75;;
30874;SDS011;17581;43.222;27.924;2024-01-25T13:58:51;29.35;;;10.70;;
30874;SDS011;17581;43.222;27.924;2024-01-25T14:01:16;28.23;;;10.88;;
30874;SDS011;17581;43.222;27.924;2024-01-25T14:03:42;35.00;;;10.43;;